YZE weather

Gore Bay Manitoulin Airport
Gore Bay, Ontario, Canada

Public forecast

Using degrees Celsius for public forecast. Weather courtesy of forecast.io.

Current aviation weather report (METAR) for Gore Bay Manitoulin Airport

Retrieved 2019/10/20 22:00 UTC (55 minutes ago):

CYZE 202200Z AUTO 30007KT 9SM SCT027 12/10 A2993 RMK SLP141

Aviation forecast (TAF) for Gore Bay Manitoulin Airport

Retrieved 2019/10/20 20:00 UTC (3 hours ago):

TAF CYZE 201938Z 2020/2022 20008KT P6SM BKN050 RMK FCST BASED ON AUTO OBS NXT FCST WILL BE ISSUED AT 210945Z